Terminal Aerodrome Forecast
Issued by NWS

Home | Current Version | Previous Version | Text Only | Print | Product List | Glossary Off
Versions: 1 2 3 4 5 6 7 8 9 10 11 12 13 14 15 16

000
FTUS43 KBIS 141600 AAB
TAFMOT
TAF AMD
KMOT 141610Z 1416/1512 35015KT 2SM -SN BKN025
      TEMPO 1416/1418 1/2SM SN BKN010
     FM141900 33012KT P6SM SCT035 BKN050
     FM142300 30009KT P6SM SCT050
     FM150300 13005KT P6SM SKC=

USA.gov is the U.S. government's official web portal to all federal, state and local government web resources and services.